Time;durP1;ratioP1;P1;durP2;ratioP2;P2;SDS_P1;SDS_P2;PMS_P1;PMS_P2;Temp;Humidity;BMP_temperature;BMP_pressure;BME280_temperature;BME280_humidity;BME280_pressure;Samples;Min_cycle;Max_cycle;Signal;HPM_P1;HPM_P2
2023/05/11 00:00:49;;;;;;;0.10;0.10;;;;;;;;;;5099849;28;20306;-76
2023/05/11 00:03:17;;;;;;;0.10;0.10;;;;;;;;;;5115946;28;20231;-76
2023/05/11 00:05:47;;;;;;;0.70;0.70;;;;;;;;;;5099366;28;20241;-76
2023/05/11 00:08:15;;;;;;;0.10;0.10;;;;;;;;;;5115337;28;20241;-76
2023/05/11 00:10:41;;;;;;;0.10;0.10;;;;;;;;;;5099060;28;20237;-76
2023/05/11 00:13:07;;;;;;;0.10;0.10;;;;;;;;;;5115927;28;20275;-76
2023/05/11 00:15:34;;;;;;;0.10;0.10;;;;;;;;;;5097944;28;20243;-76
2023/05/11 00:18:00;;;;;;;0.10;0.10;;;;;;;;;;5116825;28;20193;-76
2023/05/11 00:20:28;;;;;;;0.07;0.07;;;;;;;;;;5096273;28;20229;-76
2023/05/11 00:22:54;;;;;;;0.10;0.10;;;;;;;;;;5117878;28;20265;-75
2023/05/11 00:25:20;;;;;;;0.10;0.10;;;;;;;;;;5096093;28;20211;-76
2023/05/11 00:27:47;;;;;;;0.00;0.00;;;;;;;;;;5118354;28;20265;-76
2023/05/11 00:30:14;;;;;;;0.10;0.10;;;;;;;;;;5094601;28;20519;-76
2023/05/11 00:33:01;;;;;;;0.10;0.10;;;;;;;;;;5119118;28;20201;-76
2023/05/11 00:35:53;;;;;;;0.10;0.10;;;;;;;;;;5094357;28;20512;-76
2023/05/11 00:38:21;;;;;;;0.10;0.10;;;;;;;;;;5115585;28;20387;-76
2023/05/11 00:40:48;;;;;;;0.10;0.10;;;;;;;;;;5099215;28;20484;-76
2023/05/11 00:43:15;;;;;;;0.10;0.10;;;;;;;;;;5114742;28;20205;-76
2023/05/11 00:45:41;;;;;;;0.07;0.07;;;;;;;;;;5098389;28;20315;-76
2023/05/11 00:48:07;;;;;;;0.10;0.10;;;;;;;;;;5115704;28;20384;-76
2023/05/11 00:50:34;;;;;;;1.20;1.17;;;;;;;;;;5097374;28;20239;-76
2023/05/11 00:53:00;;;;;;;0.10;0.10;;;;;;;;;;5116531;28;20236;-76
2023/05/11 00:55:29;;;;;;;0.30;0.30;;;;;;;;;;5096508;28;20493;-76
2023/05/11 00:57:55;;;;;;;0.23;0.23;;;;;;;;;;5117185;28;20229;-76
2023/05/11 01:00:21;;;;;;;0.10;0.10;;;;;;;;;;5095561;28;20203;-76
2023/05/11 01:02:48;;;;;;;0.10;0.10;;;;;;;;;;5118082;28;20486;-76
2023/05/11 01:05:14;;;;;;;0.10;0.10;;;;;;;;;;5094600;28;20237;-75
2023/05/11 01:07:47;;;;;;;0.10;0.10;;;;;;;;;;5118960;28;20405;-76
2023/05/11 01:10:17;;;;;;;0.20;0.20;;;;;;;;;;5094459;28;20243;-75
2023/05/11 01:12:52;;;;;;;0.10;0.10;;;;;;;;;;5118539;28;20258;-76
2023/05/11 01:15:22;;;;;;;0.10;0.10;;;;;;;;;;5095170;28;20247;-76
2023/05/11 01:17:52;;;;;;;0.00;0.00;;;;;;;;;;5117669;28;20462;-76
2023/05/11 01:20:21;;;;;;;0.00;0.00;;;;;;;;;;5095091;28;20199;-76
2023/05/11 01:22:58;;;;;;;0.43;0.43;;;;;;;;;;5117861;28;20259;-76
2023/05/11 01:25:31;;;;;;;0.10;0.10;;;;;;;;;;5095808;28;20276;-76
2023/05/11 01:28:20;;;;;;;0.10;0.10;;;;;;;;;;5116494;28;20221;-76
2023/05/11 01:30:49;;;;;;;0.10;0.10;;;;;;;;;;5098482;28;20247;-76
2023/05/11 01:33:16;;;;;;;0.10;0.10;;;;;;;;;;5116935;28;20193;-76
2023/05/11 01:35:45;;;;;;;0.00;0.00;;;;;;;;;;5102201;28;20310;-76
2023/05/11 01:38:13;;;;;;;0.10;0.10;;;;;;;;;;5118391;28;20425;-77
2023/05/11 01:40:41;;;;;;;0.10;0.10;;;;;;;;;;5101631;28;20247;-76
2023/05/11 01:43:09;;;;;;;0.10;0.10;;;;;;;;;;5118906;28;20200;-76
2023/05/11 01:45:36;;;;;;;0.10;0.10;;;;;;;;;;5101093;28;20338;-76
2023/05/11 01:48:07;;;;;;;0.10;0.10;;;;;;;;;;5119696;28;20377;-76
2023/05/11 01:50:34;;;;;;;0.10;0.10;;;;;;;;;;5100642;28;20253;-76
2023/05/11 01:53:02;;;;;;;0.10;0.10;;;;;;;;;;5119906;28;20191;-76
2023/05/11 01:55:31;;;;;;;0.10;0.10;;;;;;;;;;5100067;28;20561;-76
2023/05/11 01:57:58;;;;;;;0.10;0.10;;;;;;;;;;5120213;28;20231;-76
2023/05/11 02:00:24;;;;;;;0.10;0.10;;;;;;;;;;5099352;28;20527;-75
2023/05/11 02:02:53;;;;;;;0.10;0.10;;;;;;;;;;5120709;28;20448;-75
2023/05/11 02:05:22;;;;;;;0.10;0.10;;;;;;;;;;5098606;28;20458;-75
2023/05/11 02:07:49;;;;;;;0.10;0.10;;;;;;;;;;5121404;28;20439;-76
2023/05/11 02:10:16;;;;;;;0.03;0.03;;;;;;;;;;5097648;28;20267;-74
2023/05/11 02:12:44;;;;;;;0.10;0.10;;;;;;;;;;5121633;28;20269;-76
2023/05/11 02:15:11;;;;;;;0.00;0.00;;;;;;;;;;5097125;28;20204;-75
2023/05/11 02:17:38;;;;;;;0.10;0.10;;;;;;;;;;5122386;28;20274;-76
2023/05/11 02:20:07;;;;;;;0.07;0.07;;;;;;;;;;5107171;28;20243;-76
2023/05/11 02:22:35;;;;;;;0.10;0.10;;;;;;;;;;5095493;28;20222;-76
2023/05/11 02:25:02;;;;;;;0.10;0.10;;;;;;;;;;5106842;28;20438;-76
2023/05/11 02:27:28;;;;;;;0.10;0.10;;;;;;;;;;5112209;28;20259;-75
2023/05/11 02:29:55;;;;;;;0.10;0.10;;;;;;;;;;5107077;28;20236;-76
2023/05/11 02:32:22;;;;;;;8.83;8.33;;;;;;;;;;5112120;28;20305;-75
2023/05/11 02:34:50;;;;;;;0.10;0.10;;;;;;;;;;5106883;28;20249;-75
2023/05/11 02:37:19;;;;;;;0.10;0.10;;;;;;;;;;5111906;28;20247;-75
2023/05/11 02:39:49;;;;;;;0.10;0.10;;;;;;;;;;5106463;28;20461;-75
2023/05/11 02:42:18;;;;;;;0.10;0.10;;;;;;;;;;5112053;28;20244;-75
2023/05/11 02:44:48;;;;;;;0.10;0.10;;;;;;;;;;5106731;28;20204;-75
2023/05/11 02:47:15;;;;;;;0.70;0.70;;;;;;;;;;5111763;28;20301;-75
2023/05/11 02:49:43;;;;;;;0.00;0.00;;;;;;;;;;5106647;28;20211;-75
2023/05/11 02:52:10;;;;;;;0.00;0.00;;;;;;;;;;5111820;28;20252;-75
2023/05/11 02:54:37;;;;;;;0.10;0.10;;;;;;;;;;5106495;28;20359;-75
2023/05/11 02:57:05;;;;;;;0.10;0.10;;;;;;;;;;5110969;28;20303;-75
2023/05/11 02:59:32;;;;;;;0.00;0.00;;;;;;;;;;5106530;28;20205;-75
2023/05/11 03:01:58;;;;;;;0.10;0.10;;;;;;;;;;5110409;28;20241;-75
2023/05/11 03:04:24;;;;;;;0.10;0.10;;;;;;;;;;5107373;28;20278;-74
2023/05/11 03:06:51;;;;;;;0.10;0.10;;;;;;;;;;5109181;28;20242;-75
2023/05/11 03:09:17;;;;;;;0.10;0.10;;;;;;;;;;5108288;28;20272;-75
2023/05/11 03:11:44;;;;;;;0.10;0.10;;;;;;;;;;5108168;28;20484;-75
2023/05/11 03:14:12;;;;;;;0.10;0.10;;;;;;;;;;5109129;28;20232;-75
2023/05/11 03:16:39;;;;;;;0.10;0.10;;;;;;;;;;5107498;28;20284;-76
2023/05/11 03:19:06;;;;;;;0.10;0.10;;;;;;;;;;5109332;28;20206;-75
2023/05/11 03:21:34;;;;;;;0.00;0.00;;;;;;;;;;5106660;28;20238;-75
2023/05/11 03:24:00;;;;;;;0.10;0.10;;;;;;;;;;5109888;28;20205;-75
2023/05/11 03:26:28;;;;;;;0.10;0.10;;;;;;;;;;5105932;28;20507;-75
2023/05/11 03:28:56;;;;;;;0.10;0.10;;;;;;;;;;5110735;28;20234;-75
2023/05/11 03:31:23;;;;;;;0.10;0.10;;;;;;;;;;5104960;28;20243;-75
2023/05/11 03:33:50;;;;;;;0.10;0.10;;;;;;;;;;5111420;28;20388;-75
2023/05/11 03:36:17;;;;;;;0.00;0.00;;;;;;;;;;5104025;28;20239;-75
2023/05/11 03:38:44;;;;;;;0.10;0.10;;;;;;;;;;5111714;28;20476;-75
2023/05/11 03:41:13;;;;;;;0.10;0.10;;;;;;;;;;5103513;28;20255;-75
2023/05/11 03:43:40;;;;;;;0.10;0.10;;;;;;;;;;5112495;28;20426;-75
2023/05/11 03:46:07;;;;;;;0.10;0.10;;;;;;;;;;5102633;28;20247;-75
2023/05/11 03:48:35;;;;;;;0.10;0.10;;;;;;;;;;5113261;28;20238;-74
2023/05/11 03:51:01;;;;;;;0.10;0.10;;;;;;;;;;5101958;28;20244;-75
2023/05/11 03:53:28;;;;;;;0.10;0.10;;;;;;;;;;5113475;28;20235;-75
2023/05/11 03:55:54;;;;;;;0.10;0.10;;;;;;;;;;5100640;28;20469;-75
2023/05/11 03:58:21;;;;;;;0.10;0.10;;;;;;;;;;5114405;28;20597;-75
2023/05/11 04:00:48;;;;;;;0.10;0.10;;;;;;;;;;5100171;28;20302;-75
2023/05/11 04:03:15;;;;;;;0.10;0.10;;;;;;;;;;5115338;28;20246;-75
2023/05/11 04:05:42;;;;;;;0.10;0.10;;;;;;;;;;5098181;28;20249;-75
2023/05/11 04:08:09;;;;;;;0.10;0.10;;;;;;;;;;5116397;28;20215;-75
2023/05/11 04:10:37;;;;;;;0.10;0.10;;;;;;;;;;5098276;28;20289;-75
2023/05/11 04:13:03;;;;;;;0.10;0.10;;;;;;;;;;5116836;28;20202;-75
2023/05/11 04:15:29;;;;;;;3.87;1.03;;;;;;;;;;5097451;28;20514;-75
2023/05/11 04:17:56;;;;;;;0.10;0.10;;;;;;;;;;5117508;28;20232;-75
2023/05/11 04:20:22;;;;;;;0.00;0.00;;;;;;;;;;5096561;28;20210;-74
2023/05/11 04:22:50;;;;;;;0.10;0.10;;;;;;;;;;5118191;28;20263;-75
2023/05/11 04:25:16;;;;;;;0.10;0.10;;;;;;;;;;5095555;28;20240;-75
2023/05/11 04:27:43;;;;;;;0.10;0.10;;;;;;;;;;5119292;28;20435;-75
2023/05/11 04:30:09;;;;;;;0.07;0.07;;;;;;;;;;5094575;28;20210;-74
2023/05/11 04:32:36;;;;;;;0.10;0.10;;;;;;;;;;5119754;28;20209;-75
2023/05/11 04:35:02;;;;;;;0.10;0.10;;;;;;;;;;5104703;28;20391;-74
2023/05/11 04:37:29;;;;;;;0.10;0.10;;;;;;;;;;5109576;28;20237;-75
2023/05/11 04:39:57;;;;;;;0.03;0.03;;;;;;;;;;5104498;28;20382;-75
2023/05/11 04:42:24;;;;;;;0.00;0.00;;;;;;;;;;5109557;28;20602;-75
2023/05/11 04:44:52;;;;;;;0.10;0.10;;;;;;;;;;5104248;28;20236;-75
2023/05/11 04:47:19;;;;;;;0.10;0.10;;;;;;;;;;5109583;28;20471;-75
2023/05/11 04:49:45;;;;;;;0.10;0.10;;;;;;;;;;5104332;28;20226;-75
2023/05/11 04:52:11;;;;;;;0.10;0.10;;;;;;;;;;5109652;28;20245;-75
2023/05/11 04:54:38;;;;;;;0.10;0.10;;;;;;;;;;5104099;28;20272;-76
2023/05/11 04:57:06;;;;;;;0.10;0.10;;;;;;;;;;5108876;28;20396;-75
2023/05/11 04:59:33;;;;;;;0.10;0.10;;;;;;;;;;5104374;28;20430;-75
2023/05/11 05:02:00;;;;;;;0.10;0.10;;;;;;;;;;5108168;28;20448;-75
2023/05/11 05:04:26;;;;;;;0.53;0.53;;;;;;;;;;5104751;28;20210;-75
2023/05/11 05:06:53;;;;;;;0.10;0.10;;;;;;;;;;5106441;28;20246;-75
2023/05/11 05:09:19;;;;;;;0.10;0.10;;;;;;;;;;5105678;28;20229;-75
2023/05/11 05:11:45;;;;;;;0.10;0.10;;;;;;;;;;5106310;28;20269;-75
2023/05/11 05:14:13;;;;;;;0.00;0.00;;;;;;;;;;5106870;28;20458;-75
2023/05/11 05:16:39;;;;;;;0.10;0.10;;;;;;;;;;5105406;28;20454;-75
2023/05/11 05:19:06;;;;;;;0.10;0.10;;;;;;;;;;5107479;28;20449;-75
2023/05/11 05:21:34;;;;;;;0.10;0.10;;;;;;;;;;5104530;28;20321;-75
2023/05/11 05:24:02;;;;;;;0.20;0.20;;;;;;;;;;5108218;28;20202;-75
2023/05/11 05:26:28;;;;;;;0.10;0.10;;;;;;;;;;5103966;28;20240;-75
2023/05/11 05:28:54;;;;;;;0.10;0.10;;;;;;;;;;5108980;28;20269;-74
2023/05/11 05:31:22;;;;;;;0.10;0.10;;;;;;;;;;5102947;28;20255;-75
2023/05/11 05:33:48;;;;;;;0.10;0.10;;;;;;;;;;5109415;28;20273;-75
2023/05/11 05:36:15;;;;;;;0.10;0.10;;;;;;;;;;5102028;28;20252;-75
2023/05/11 05:38:41;;;;;;;0.10;0.10;;;;;;;;;;5110166;28;20289;-74
2023/05/11 05:41:07;;;;;;;0.10;0.10;;;;;;;;;;5101009;28;20244;-75
2023/05/11 05:43:34;;;;;;;0.10;0.10;;;;;;;;;;5111466;28;20450;-75
2023/05/11 05:46:00;;;;;;;0.10;0.10;;;;;;;;;;5100181;28;20448;-75
2023/05/11 05:48:28;;;;;;;0.00;0.00;;;;;;;;;;5112498;28;20270;-75
2023/05/11 05:50:54;;;;;;;0.10;0.10;;;;;;;;;;5099427;28;20260;-75
2023/05/11 05:53:21;;;;;;;0.10;0.10;;;;;;;;;;5113290;28;20238;-75
2023/05/11 05:55:47;;;;;;;0.10;0.10;;;;;;;;;;5098442;28;20244;-75
2023/05/11 05:58:13;;;;;;;0.00;0.00;;;;;;;;;;5114053;28;20395;-75
2023/05/11 06:00:40;;;;;;;0.10;0.10;;;;;;;;;;5096848;28;20585;-75
2023/05/11 06:03:06;;;;;;;0.10;0.10;;;;;;;;;;5115337;28;20581;-75
2023/05/11 06:05:34;;;;;;;0.10;0.10;;;;;;;;;;5096515;28;20291;-75
2023/05/11 06:08:00;;;;;;;0.10;0.10;;;;;;;;;;5115629;28;20269;-75
2023/05/11 06:10:27;;;;;;;0.10;0.10;;;;;;;;;;5095571;28;20282;-74
2023/05/11 06:12:53;;;;;;;0.10;0.10;;;;;;;;;;5116809;28;20191;-75
2023/05/11 06:15:19;;;;;;;0.10;0.10;;;;;;;;;;5094666;28;20202;-75
2023/05/11 06:17:46;;;;;;;0.00;0.00;;;;;;;;;;5117953;28;20541;-75
2023/05/11 06:20:13;;;;;;;0.10;0.10;;;;;;;;;;5097318;28;20204;-75
2023/05/11 06:22:40;;;;;;;0.03;0.03;;;;;;;;;;5121756;28;20194;-75
2023/05/11 06:25:07;;;;;;;0.20;0.20;;;;;;;;;;5107080;28;20241;-76
2023/05/11 06:27:33;;;;;;;0.30;0.30;;;;;;;;;;5095316;28;20367;-75
2023/05/11 06:30:00;;;;;;;0.03;0.03;;;;;;;;;;5107045;28;20276;-75
2023/05/11 06:32:26;;;;;;;0.50;0.50;;;;;;;;;;5112082;28;20300;-75
2023/05/11 06:34:52;;;;;;;0.05;0.05;;;;;;;;;;5106858;28;20238;-75
2023/05/11 06:37:19;;;;;;;0.10;0.10;;;;;;;;;;5112066;28;20632;-74
2023/05/11 06:39:47;;;;;;;0.17;0.17;;;;;;;;;;5106696;28;20554;-75
2023/05/11 06:42:14;;;;;;;0.08;0.08;;;;;;;;;;5111973;28;20281;-75
2023/05/11 06:44:40;;;;;;;0.10;0.10;;;;;;;;;;5106612;28;20205;-75
2023/05/11 06:47:07;;;;;;;0.10;0.10;;;;;;;;;;5111782;28;20268;-75
2023/05/11 06:49:33;;;;;;;0.00;0.00;;;;;;;;;;5106601;28;20266;-75
2023/05/11 06:51:59;;;;;;;0.10;0.10;;;;;;;;;;5110663;28;20302;-75
2023/05/11 06:54:26;;;;;;;0.08;0.08;;;;;;;;;;5107677;28;20202;-75
2023/05/11 06:56:54;;;;;;;0.10;0.10;;;;;;;;;;5109846;28;20501;-75
2023/05/11 06:59:20;;;;;;;0.00;0.00;;;;;;;;;;5108147;28;20241;-76
2023/05/11 07:01:46;;;;;;;0.10;0.10;;;;;;;;;;5108631;28;20246;-75
2023/05/11 07:04:13;;;;;;;0.00;0.00;;;;;;;;;;5109252;28;20241;-76
2023/05/11 07:06:39;;;;;;;0.00;0.00;;;;;;;;;;5107719;28;20248;-75
2023/05/11 07:09:06;;;;;;;0.10;0.10;;;;;;;;;;5109901;28;20236;-75
2023/05/11 07:11:32;;;;;;;0.10;0.10;;;;;;;;;;5106623;28;20237;-75
2023/05/11 07:14:00;;;;;;;1.83;1.70;;;;;;;;;;5110498;28;20275;-74
2023/05/11 07:16:26;;;;;;;0.10;0.10;;;;;;;;;;5105818;28;20309;-75
2023/05/11 07:18:52;;;;;;;0.10;0.10;;;;;;;;;;5111306;28;20268;-75
2023/05/11 07:21:20;;;;;;;0.10;0.10;;;;;;;;;;5104951;28;20301;-75
2023/05/11 07:23:47;;;;;;;0.17;0.17;;;;;;;;;;5111997;28;20427;-76
2023/05/11 07:26:13;;;;;;;0.10;0.10;;;;;;;;;;5103973;28;20261;-75
2023/05/11 07:28:40;;;;;;;1.35;0.55;;;;;;;;;;5112826;28;20228;-75
2023/05/11 07:31:07;;;;;;;0.73;0.73;;;;;;;;;;5102062;28;20264;-74
2023/05/11 07:33:36;;;;;;;0.10;0.10;;;;;;;;;;5113506;28;20249;-75
2023/05/11 07:36:03;;;;;;;0.10;0.10;;;;;;;;;;5102578;28;20308;-75
2023/05/11 07:38:29;;;;;;;0.10;0.10;;;;;;;;;;5113683;28;20229;-77
2023/05/11 07:40:56;;;;;;;0.08;0.08;;;;;;;;;;5101672;28;20303;-78
2023/05/11 07:43:22;;;;;;;0.10;0.10;;;;;;;;;;5115053;28;20210;-76
2023/05/11 07:45:48;;;;;;;0.10;0.10;;;;;;;;;;5100785;28;20263;-78
2023/05/11 07:48:16;;;;;;;0.10;0.10;;;;;;;;;;5115610;28;20270;-79
2023/05/11 07:50:43;;;;;;;0.10;0.10;;;;;;;;;;5099973;28;20238;-79
2023/05/11 07:53:09;;;;;;;0.10;0.10;;;;;;;;;;5116588;28;20269;-77
2023/05/11 07:55:36;;;;;;;1.15;1.05;;;;;;;;;;5099501;28;20241;-77
2023/05/11 07:58:02;;;;;;;0.40;0.40;;;;;;;;;;5118751;28;20299;-77
2023/05/11 08:00:28;;;;;;;0.50;0.50;;;;;;;;;;5098993;28;20251;-76
2023/05/11 08:02:55;;;;;;;0.10;0.10;;;;;;;;;;5118911;28;20272;-76
2023/05/11 08:05:23;;;;;;;0.20;0.20;;;;;;;;;;5097932;28;20560;-77
2023/05/11 08:07:49;;;;;;;0.10;0.10;;;;;;;;;;5120280;28;20286;-77
2023/05/11 08:10:16;;;;;;;0.20;0.20;;;;;;;;;;5097167;28;20199;-77
2023/05/11 08:12:42;;;;;;;0.10;0.10;;;;;;;;;;5120798;28;20467;-77
2023/05/11 08:15:09;;;;;;;0.28;0.28;;;;;;;;;;5097031;28;20231;-77
2023/05/11 08:17:36;;;;;;;0.22;0.22;;;;;;;;;;5121617;28;20218;-78
2023/05/11 08:20:02;;;;;;;0.10;0.10;;;;;;;;;;5105539;28;20269;-78
2023/05/11 08:22:30;;;;;;;0.60;0.60;;;;;;;;;;5111930;28;20245;-78
2023/05/11 08:24:57;;;;;;;0.77;0.77;;;;;;;;;;5106163;28;20233;-77
2023/05/11 08:27:24;;;;;;;0.25;0.25;;;;;;;;;;5110899;28;20240;-77
2023/05/11 08:29:50;;;;;;;0.93;0.83;;;;;;;;;;5105632;28;20229;-78
2023/05/11 08:32:17;;;;;;;0.30;0.30;;;;;;;;;;5111468;28;20259;-78
2023/05/11 08:34:43;;;;;;;0.47;0.47;;;;;;;;;;5106159;28;20222;-79
2023/05/11 08:37:09;;;;;;;1.57;1.53;;;;;;;;;;5111128;28;20304;-78
2023/05/11 08:39:37;;;;;;;0.10;0.10;;;;;;;;;;5105339;28;20287;-76
2023/05/11 08:42:05;;;;;;;0.87;0.87;;;;;;;;;;5110286;28;20312;-77
2023/05/11 08:44:32;;;;;;;0.00;0.00;;;;;;;;;;5104980;28;20292;-76
2023/05/11 08:46:59;;;;;;;0.10;0.10;;;;;;;;;;5109029;28;20347;-77
2023/05/11 08:49:26;;;;;;;0.10;0.10;;;;;;;;;;5106104;28;20230;-78
2023/05/11 08:51:52;;;;;;;0.10;0.10;;;;;;;;;;5108720;28;20305;-77
2023/05/11 08:54:19;;;;;;;0.10;0.10;;;;;;;;;;5107303;28;20383;-77
2023/05/11 08:56:47;;;;;;;0.77;0.77;;;;;;;;;;5107672;28;20491;-77
2023/05/11 08:59:13;;;;;;;0.85;0.30;;;;;;;;;;5108142;28;20420;-77
2023/05/11 09:01:40;;;;;;;0.10;0.10;;;;;;;;;;5106377;28;20238;-77
2023/05/11 09:04:08;;;;;;;0.63;0.63;;;;;;;;;;5109169;28;20273;-78
2023/05/11 09:06:34;;;;;;;0.77;0.77;;;;;;;;;;5105975;28;20239;-78
2023/05/11 09:09:01;;;;;;;0.88;0.88;;;;;;;;;;5109158;28;20202;-77
2023/05/11 09:11:28;;;;;;;0.55;0.32;;;;;;;;;;5105253;28;20237;-78
2023/05/11 09:13:55;;;;;;;0.00;0.00;;;;;;;;;;5109044;28;20209;-78
2023/05/11 09:16:22;;;;;;;0.20;0.20;;;;;;;;;;5104817;28;20303;-79
2023/05/11 09:18:48;;;;;;;0.08;0.08;;;;;;;;;;5111394;28;20253;-78
2023/05/11 09:21:15;;;;;;;0.08;0.08;;;;;;;;;;5104920;28;20258;-78
2023/05/11 09:23:41;;;;;;;0.22;0.22;;;;;;;;;;5112823;28;20270;-79
2023/05/11 09:26:13;;;;;;;0.70;0.70;;;;;;;;;;5102578;28;20262;-80
2023/05/11 09:28:47;;;;;;;0.30;0.30;;;;;;;;;;5111830;28;20280;-78
2023/05/11 09:31:34;;;;;;;0.10;0.10;;;;;;;;;;5102497;28;20259;-78
2023/05/11 09:34:08;;;;;;;0.10;0.10;;;;;;;;;;5109508;28;20230;-79
2023/05/11 09:36:34;;;;;;;0.10;0.10;;;;;;;;;;5106290;28;20350;-79
2023/05/11 09:39:01;;;;;;;0.45;0.45;;;;;;;;;;5109292;28;20236;-80
2023/05/11 09:41:28;;;;;;;0.47;0.47;;;;;;;;;;5105089;28;20240;-78
2023/05/11 09:44:03;;;;;;;0.17;0.17;;;;;;;;;;5110181;28;20271;-79
2023/05/11 09:46:31;;;;;;;0.10;0.10;;;;;;;;;;5105663;28;20310;-78
2023/05/11 09:48:58;;;;;;;0.00;0.00;;;;;;;;;;5110066;28;20204;-78
2023/05/11 09:51:28;;;;;;;0.28;0.28;;;;;;;;;;5105194;28;20238;-79
2023/05/11 09:53:54;;;;;;;0.43;0.43;;;;;;;;;;5112429;28;20408;-79
2023/05/11 09:56:21;;;;;;;0.10;0.10;;;;;;;;;;5107712;28;20240;-78
2023/05/11 09:58:49;;;;;;;0.10;0.10;;;;;;;;;;5114331;28;20251;-78
2023/05/11 10:01:16;;;;;;;0.68;0.63;;;;;;;;;;5107412;28;20314;-79
2023/05/11 10:03:47;;;;;;;0.00;0.00;;;;;;;;;;5115380;28;20233;-80
2023/05/11 10:06:13;;;;;;;0.30;0.30;;;;;;;;;;5106536;28;20249;-78
2023/05/11 10:08:40;;;;;;;0.10;0.10;;;;;;;;;;5115461;28;20505;-78
2023/05/11 10:11:07;;;;;;;0.20;0.20;;;;;;;;;;5105921;28;20299;-78
2023/05/11 10:13:34;;;;;;;0.03;0.03;;;;;;;;;;5116782;28;20271;-79
2023/05/11 10:16:01;;;;;;;0.10;0.10;;;;;;;;;;5105461;28;20448;-79
2023/05/11 10:18:27;;;;;;;0.03;0.03;;;;;;;;;;5117161;28;20568;-79
2023/05/11 10:20:56;;;;;;;0.28;0.28;;;;;;;;;;5103225;28;20465;-79
2023/05/11 10:23:22;;;;;;;0.03;0.03;;;;;;;;;;5117827;28;20508;-79
2023/05/11 10:25:49;;;;;;;0.47;0.47;;;;;;;;;;5102101;28;20470;-78
2023/05/11 10:28:15;;;;;;;0.03;0.03;;;;;;;;;;5117875;28;20274;-79
2023/05/11 10:30:43;;;;;;;0.10;0.10;;;;;;;;;;5101315;28;20486;-78
2023/05/11 10:33:10;;;;;;;0.10;0.10;;;;;;;;;;5119213;28;20205;-78
2023/05/11 10:35:37;;;;;;;0.10;0.10;;;;;;;;;;5101159;28;20238;-78
2023/05/11 10:38:06;;;;;;;0.20;0.20;;;;;;;;;;5119432;28;20211;-80
2023/05/11 10:40:35;;;;;;;0.38;0.38;;;;;;;;;;5100415;28;20252;-78
2023/05/11 10:43:14;;;;;;;0.05;0.05;;;;;;;;;;5120309;28;20279;-79
2023/05/11 10:45:44;;;;;;;0.00;0.00;;;;;;;;;;5102321;28;20248;-79
2023/05/11 10:48:36;;;;;;;0.00;0.00;;;;;;;;;;5118938;28;20261;-80
2023/05/11 10:51:26;;;;;;;0.10;0.10;;;;;;;;;;5104259;28;20305;-80
2023/05/11 10:54:03;;;;;;;2.95;2.67;;;;;;;;;;5111983;28;20225;-79
2023/05/11 10:56:35;;;;;;;0.10;0.10;;;;;;;;;;5107802;28;20239;-79
2023/05/11 10:59:16;;;;;;;0.13;0.13;;;;;;;;;;5111606;28;20407;-80
2023/05/11 11:01:44;;;;;;;0.00;0.00;;;;;;;;;;5109124;28;20445;-79
2023/05/11 11:04:11;;;;;;;0.40;0.40;;;;;;;;;;5109456;28;20272;-80
2023/05/11 11:06:39;;;;;;;0.10;0.10;;;;;;;;;;5108009;28;20301;-79
2023/05/11 11:09:07;;;;;;;0.85;0.85;;;;;;;;;;5111352;28;20211;-80
2023/05/11 11:11:35;;;;;;;0.10;0.10;;;;;;;;;;5108463;27;20323;-79
2023/05/11 11:14:04;;;;;;;0.10;0.10;;;;;;;;;;5110759;28;20229;-80
2023/05/11 11:16:31;;;;;;;0.63;0.63;;;;;;;;;;5106579;28;20310;-79
2023/05/11 11:19:16;;;;;;;1.73;1.63;;;;;;;;;;5110989;28;20233;-79
2023/05/11 11:21:44;;;;;;;0.10;0.10;;;;;;;;;;5107824;28;20473;-80
2023/05/11 11:24:32;;;;;;;0.00;0.00;;;;;;;;;;5109058;28;20371;-82
2023/05/11 11:26:58;;;;;;;0.00;0.00;;;;;;;;;;5109714;28;20299;-81
2023/05/11 11:29:24;;;;;;;0.00;0.00;;;;;;;;;;5107003;28;20207;-81
2023/05/11 11:31:51;;;;;;;0.00;0.00;;;;;;;;;;5108700;28;20239;-80
2023/05/11 11:34:41;;;;;;;0.00;0.00;;;;;;;;;;5107882;28;20243;-81
2023/05/11 11:37:12;;;;;;;0.00;0.00;;;;;;;;;;5095738;28;20252;-80
2023/05/11 11:39:48;;;;;;;0.10;0.10;;;;;;;;;;5105646;28;20239;-78
2023/05/11 11:42:15;;;;;;;0.38;0.38;;;;;;;;;;5110802;28;20244;-79
2023/05/11 11:44:43;;;;;;;0.05;0.05;;;;;;;;;;5106276;28;20208;-79
2023/05/11 11:47:13;;;;;;;0.00;0.00;;;;;;;;;;5111808;28;20345;-79
2023/05/11 11:49:40;;;;;;;0.10;0.10;;;;;;;;;;5105449;28;20239;-77
2023/05/11 11:52:10;;;;;;;0.20;0.20;;;;;;;;;;5110466;28;20267;-77
2023/05/11 11:54:37;;;;;;;0.10;0.10;;;;;;;;;;5106099;28;20234;-78
2023/05/11 11:57:05;;;;;;;0.08;0.08;;;;;;;;;;5110941;28;20258;-78
2023/05/11 11:59:45;;;;;;;0.10;0.10;;;;;;;;;;5107325;28;20296;-79
2023/05/11 12:02:15;;;;;;;0.10;0.10;;;;;;;;;;5111023;28;20469;-79
2023/05/11 12:04:50;;;;;;;0.00;0.00;;;;;;;;;;5106689;28;20207;-80
2023/05/11 12:07:18;;;;;;;0.10;0.10;;;;;;;;;;5111499;28;20255;-79
2023/05/11 12:09:45;;;;;;;0.10;0.10;;;;;;;;;;5106562;28;20201;-80
2023/05/11 12:12:16;;;;;;;0.43;0.43;;;;;;;;;;5111218;28;20302;-79
2023/05/11 12:14:47;;;;;;;0.03;0.03;;;;;;;;;;5106786;28;20284;-79
2023/05/11 12:17:15;;;;;;;0.40;0.40;;;;;;;;;;5111748;28;20583;-80
2023/05/11 12:19:42;;;;;;;0.00;0.00;;;;;;;;;;5106130;28;20257;-79
2023/05/11 12:22:09;;;;;;;0.70;0.70;;;;;;;;;;5111575;28;20251;-79
2023/05/11 12:24:36;;;;;;;0.20;0.20;;;;;;;;;;5106042;28;20272;-79
2023/05/11 12:27:03;;;;;;;0.03;0.03;;;;;;;;;;5110429;28;20308;-80
2023/05/11 12:29:31;;;;;;;0.00;0.00;;;;;;;;;;5106691;28;20402;-79
2023/05/11 12:31:58;;;;;;;0.00;0.00;;;;;;;;;;5110724;28;20265;-80
2023/05/11 12:34:24;;;;;;;0.10;0.10;;;;;;;;;;5107720;28;20271;-79
2023/05/11 12:36:52;;;;;;;0.00;0.00;;;;;;;;;;5109463;28;20306;-78
2023/05/11 12:39:18;;;;;;;0.40;0.40;;;;;;;;;;5107295;28;20245;-78
2023/05/11 12:41:46;;;;;;;0.10;0.10;;;;;;;;;;5107725;28;20626;-78
2023/05/11 12:44:14;;;;;;;0.75;0.75;;;;;;;;;;5107434;28;20397;-78
2023/05/11 12:46:42;;;;;;;0.00;0.00;;;;;;;;;;5106676;28;20364;-77
2023/05/11 12:49:09;;;;;;;0.00;0.00;;;;;;;;;;5108616;28;20237;-79
2023/05/11 12:51:45;;;;;;;0.10;0.10;;;;;;;;;;5106418;28;20249;-78
2023/05/11 12:54:12;;;;;;;0.03;0.03;;;;;;;;;;5108900;28;20203;-79
2023/05/11 12:56:45;;;;;;;0.00;0.00;;;;;;;;;;5107532;28;20436;-78
2023/05/11 12:59:23;;;;;;;0.03;0.03;;;;;;;;;;5108625;28;20226;-78
2023/05/11 13:01:51;;;;;;;0.15;0.15;;;;;;;;;;5108838;28;20503;-78
2023/05/11 13:04:17;;;;;;;0.10;0.10;;;;;;;;;;5108524;28;20265;-78
2023/05/11 13:06:44;;;;;;;0.10;0.10;;;;;;;;;;5107534;28;20263;-78
2023/05/11 13:09:11;;;;;;;0.00;0.00;;;;;;;;;;5108864;28;20271;-79
2023/05/11 13:11:37;;;;;;;0.10;0.10;;;;;;;;;;5106938;28;20255;-79
2023/05/11 13:14:14;;;;;;;0.00;0.00;;;;;;;;;;5109849;28;20212;-78
2023/05/11 13:16:41;;;;;;;0.00;0.00;;;;;;;;;;5107359;28;20473;-78
2023/05/11 13:19:09;;;;;;;0.65;0.30;;;;;;;;;;5109034;28;20278;-78
2023/05/11 13:21:35;;;;;;;0.00;0.00;;;;;;;;;;5106863;28;20238;-78
2023/05/11 13:24:02;;;;;;;0.08;0.08;;;;;;;;;;5109830;28;20269;-79
2023/05/11 13:26:29;;;;;;;0.03;0.03;;;;;;;;;;5105790;28;20559;-77
2023/05/11 13:28:56;;;;;;;0.10;0.10;;;;;;;;;;5113054;28;20210;-79
2023/05/11 13:31:22;;;;;;;0.00;0.00;;;;;;;;;;5109041;28;20293;-79
2023/05/11 13:33:49;;;;;;;0.00;0.00;;;;;;;;;;5115749;28;20268;-78
2023/05/11 13:36:17;;;;;;;0.00;0.00;;;;;;;;;;5108712;28;20456;-79
2023/05/11 13:38:44;;;;;;;0.30;0.30;;;;;;;;;;5116178;28;20282;-78
2023/05/11 13:41:11;;;;;;;0.00;0.00;;;;;;;;;;5107483;28;20250;-78
2023/05/11 13:43:37;;;;;;;0.10;0.10;;;;;;;;;;5117160;28;20395;-79
2023/05/11 13:46:03;;;;;;;0.45;0.45;;;;;;;;;;5106374;28;20246;-79
2023/05/11 13:48:30;;;;;;;1.08;1.05;;;;;;;;;;5118117;28;20209;-80
2023/05/11 13:50:56;;;;;;;0.30;0.30;;;;;;;;;;5105602;28;20268;-80
2023/05/11 13:53:24;;;;;;;0.00;0.00;;;;;;;;;;5119175;28;20450;-78
2023/05/11 13:55:51;;;;;;;0.40;0.40;;;;;;;;;;5104440;28;20264;-78
2023/05/11 13:58:17;;;;;;;0.10;0.10;;;;;;;;;;5119060;28;20601;-78
2023/05/11 14:00:44;;;;;;;0.85;0.85;;;;;;;;;;5104297;28;20238;-79
2023/05/11 14:03:10;;;;;;;0.03;0.03;;;;;;;;;;5120252;28;20279;-79
2023/05/11 14:05:36;;;;;;;0.73;0.50;;;;;;;;;;5102363;28;20246;-78
2023/05/11 14:08:03;;;;;;;0.10;0.10;;;;;;;;;;5121566;28;20239;-78
2023/05/11 14:10:31;;;;;;;0.10;0.10;;;;;;;;;;5101657;28;20262;-78
2023/05/11 14:12:57;;;;;;;0.10;0.10;;;;;;;;;;5122071;28;20264;-78
2023/05/11 14:15:24;;;;;;;0.00;0.00;;;;;;;;;;5100487;28;20241;-78
2023/05/11 14:17:50;;;;;;;0.00;0.00;;;;;;;;;;5123100;28;20214;-78
2023/05/11 14:20:16;;;;;;;0.10;0.10;;;;;;;;;;5100372;28;20287;-78
2023/05/11 14:22:43;;;;;;;0.10;0.10;;;;;;;;;;5124035;28;20281;-79
2023/05/11 14:25:09;;;;;;;0.00;0.00;;;;;;;;;;5099103;28;20238;-76
2023/05/11 14:27:37;;;;;;;0.00;0.00;;;;;;;;;;5124371;28;20264;-78
2023/05/11 14:30:04;;;;;;;0.05;0.05;;;;;;;;;;5108867;28;20239;-78
2023/05/11 14:32:30;;;;;;;0.00;0.00;;;;;;;;;;5114672;28;20305;-78
2023/05/11 14:34:57;;;;;;;0.10;0.10;;;;;;;;;;5109195;28;20243;-79
2023/05/11 14:37:23;;;;;;;0.03;0.03;;;;;;;;;;5114235;28;20438;-77
2023/05/11 14:39:49;;;;;;;0.10;0.10;;;;;;;;;;5108100;28;20437;-76
2023/05/11 14:42:16;;;;;;;2.92;1.02;;;;;;;;;;5113940;28;20483;-76
2023/05/11 14:44:45;;;;;;;0.00;0.00;;;;;;;;;;5109437;28;20400;-76
2023/05/11 14:47:11;;;;;;;0.03;0.03;;;;;;;;;;5115016;28;20274;-75